Time;durP1;ratioP1;P1;durP2;ratioP2;P2;SDS_P1;SDS_P2;PMS_P1;PMS_P2;Temp;Humidity;BMP_temperature;BMP_pressure;BME280_temperature;BME280_humidity;BME280_pressure;Samples;Min_cycle;Max_cycle;Signal;HPM_P1;HPM_P2
2023/01/28 00:00:29;;;;;;;13.05;8.73;;;;;;;;;;4885726;29;20040;-71
2023/01/28 00:02:55;;;;;;;13.27;9.25;;;;;;;;;;4901213;29;20093;-71
2023/01/28 00:05:22;;;;;;;14.52;9.18;;;;;;;;;;4901211;29;20043;-71
2023/01/28 00:07:49;;;;;;;15.02;9.55;;;;;;;;;;4914328;29;20054;-71
2023/01/28 00:10:16;;;;;;;13.15;9.13;;;;;;;;;;4901386;29;20036;-71
2023/01/28 00:12:42;;;;;;;13.75;8.88;;;;;;;;;;4887047;29;20126;-71
2023/01/28 00:15:09;;;;;;;15.23;9.57;;;;;;;;;;4891414;29;20512;-70
2023/01/28 00:17:36;;;;;;;12.65;9.82;;;;;;;;;;4901090;29;20127;-71
2023/01/28 00:20:03;;;;;;;13.10;8.95;;;3.30;99.90;;;;;;4903332;29;20540;-71
2023/01/28 00:22:30;;;;;;;12.70;10.02;;;;;;;;;;4905263;29;20048;-71
2023/01/28 00:24:56;;;;;;;13.55;8.98;;;;;;;;;;4901146;29;20044;-71
2023/01/28 00:27:22;;;;;;;13.23;9.20;;;;;;;;;;4917120;29;20386;-71
2023/01/28 00:29:48;;;;;;;11.55;9.27;;;;;;;;;;4917920;29;20059;-71
2023/01/28 00:32:14;;;;;;;10.80;8.52;;;;;;;;;;4912572;29;20087;-71
2023/01/28 00:34:40;;;;;;;12.80;8.65;;;;;;;;;;4900187;29;20446;-71
2023/01/28 00:37:06;;;;;;;10.55;8.40;;;;;;;;;;4900580;29;20036;-71
2023/01/28 00:39:32;;;;;;;13.35;8.45;;;;;;;;;;4871279;29;20481;-71
2023/01/28 00:41:58;;;;;;;11.00;8.15;;;;;;;;;;4912752;29;20152;-71
2023/01/28 00:44:24;;;;;;;7.25;6.40;;;;;;;;;;4885127;29;20537;-71
2023/01/28 00:46:50;;;;;;;8.63;6.55;;;;;;;;;;4903033;29;20043;-71
2023/01/28 00:49:16;;;;;;;11.13;6.68;;;;;;;;;;4900321;29;20126;-70
2023/01/28 00:51:42;;;;;;;8.80;7.07;;;;;;;;;;4900855;29;20040;-72
2023/01/28 00:54:11;;;;;;;9.98;7.75;;;3.40;99.90;;;;;;4887408;29;20103;-71
2023/01/28 00:56:37;;;;;;;11.27;6.82;;;;;;;;;;4901560;29;20035;-71
2023/01/28 00:59:03;;;;;;;9.25;6.38;;;;;;;;;;4914820;29;20032;-71
2023/01/28 01:01:29;;;;;;;11.82;7.40;;;;;;;;;;4888598;29;20040;-71
2023/01/28 01:04:02;;;;;;;10.35;6.30;;;;;;;;;;4900392;29;20396;-71
2023/01/28 01:06:34;;;;;;;7.57;6.25;;;3.50;99.90;;;;;;4885450;29;20047;-71
2023/01/28 01:09:00;;;;;;;13.65;7.43;;;;;;;;;;4887036;29;20047;-71
2023/01/28 01:11:26;;;;;;;9.93;6.10;;;;;;;;;;4914443;29;20056;-71
2023/01/28 01:13:56;;;;;;;13.82;7.10;;;;;;;;;;4916479;29;20051;-72
2023/01/28 01:16:27;;;;;;;9.18;7.20;;;;;;;;;;4889384;29;20056;-71
2023/01/28 01:18:54;;;;;;;10.77;7.18;;;;;;;;;;4902200;29;20076;-71
2023/01/28 01:21:21;;;;;;;11.48;7.35;;;;;;;;;;4899989;29;20032;-71
2023/01/28 01:23:48;;;;;;;9.60;6.40;;;;;;;;;;4904405;29;20135;-71
2023/01/28 01:26:14;;;;;;;8.65;5.45;;;;;;;;;;4908032;29;20485;-71
2023/01/28 01:28:40;;;;;;;11.45;6.07;;;;;;;;;;4900716;29;20040;-71
2023/01/28 01:31:10;;;;;;;8.63;5.22;;;3.20;99.90;;;;;;4916953;29;20119;-71
2023/01/28 01:33:36;;;;;;;10.88;5.75;;;;;;;;;;4914123;29;20083;-71
2023/01/28 01:36:03;;;;;;;8.73;6.38;;;;;;;;;;4882728;29;20048;-71
2023/01/28 01:38:29;;;;;;;12.50;6.85;;;;;;;;;;4884246;29;20080;-71
2023/01/28 01:40:57;;;;;;;7.95;5.90;;;;;;;;;;4900062;29;20036;-71
2023/01/28 01:43:23;;;;;;;10.77;6.50;;;;;;;;;;4884543;29;20043;-70
2023/01/28 01:45:54;;;;;;;8.90;6.43;;;3.30;99.90;;;;;;4900692;29;20055;-71
2023/01/28 01:48:22;;;;;;;11.32;6.63;;;;;;;;;;4903921;29;20400;-71
2023/01/28 01:50:59;;;;;;;9.73;6.68;;;3.50;99.90;;;;;;4912090;29;20409;-71
2023/01/28 01:53:26;;;;;;;8.95;6.32;;;3.20;99.90;;;;;;4916716;29;20044;-71
2023/01/28 01:55:53;;;;;;;12.40;6.18;;;;;;;;;;4908472;29;20405;-70
2023/01/28 01:58:22;;;;;;;9.88;6.78;;;3.60;99.90;;;;;;4905621;29;20548;-71
2023/01/28 02:00:48;;;;;;;7.60;6.38;;;;;;;;;;4913346;29;20075;-71
2023/01/28 02:03:16;;;;;;;10.43;6.93;;;;;;;;;;4888902;29;20044;-71
2023/01/28 02:05:43;;;;;;;11.32;6.93;;;;;;;;;;4888073;29;20091;-71
2023/01/28 02:08:21;;;;;;;7.45;6.30;;;;;;;;;;4904065;29;20075;-70
2023/01/28 02:10:50;;;;;;;8.65;6.40;;;;;;;;;;4903218;29;20354;-71
2023/01/28 02:13:18;;;;;;;7.72;5.85;;;3.50;99.90;;;;;;4887646;29;20119;-71
2023/01/28 02:15:45;;;;;;;8.40;6.22;;;;;;;;;;4935577;29;20059;-71
2023/01/28 02:18:11;;;;;;;13.85;6.38;;;;;;;;;;4892279;29;20044;-71
2023/01/28 02:20:37;;;;;;;11.48;6.97;;;;;;;;;;4903165;29;20102;-71
2023/01/28 02:23:06;;;;;;;10.60;6.70;;;;;;;;;;4913352;29;20035;-71
2023/01/28 02:25:51;;;;;;;8.13;6.03;;;;;;;;;;4897689;29;20044;-71
2023/01/28 02:28:35;;;;;;;9.38;6.80;;;3.50;99.90;;;;;;4919085;29;20492;-71
2023/01/28 02:31:08;;;;;;;12.57;7.15;;;;;;;;;;4912343;29;20043;-71
2023/01/28 02:33:39;;;;;;;13.73;7.60;;;;;;;;;;4914211;29;20056;-71
2023/01/28 02:36:17;;;;;;;15.52;8.18;;;;;;;;;;4903847;29;20054;-71
2023/01/28 02:38:48;;;;;;;14.95;6.93;;;3.20;99.90;;;;;;4913126;29;20519;-71
2023/01/28 02:41:26;;;;;;;9.70;7.47;;;;;;;;;;4918012;29;20071;-71
2023/01/28 02:43:52;;;;;;;11.15;7.22;;;;;;;;;;4890314;29;20127;-71
2023/01/28 02:49:30;;;;;;;8.10;5.85;;;3.00;99.90;;;;;;4908732;29;20051;-71
2023/01/28 02:52:02;;;;;;;11.05;7.00;;;3.50;99.90;;;;;;4918308;29;20043;-71
2023/01/28 02:54:46;;;;;;;13.02;6.35;;;;;;;;;;4919535;29;20152;-71
2023/01/28 02:57:19;;;;;;;10.05;7.22;;;;;;;;;;4928447;29;20094;-71
2023/01/28 03:00:01;;;;;;;11.77;7.35;;;3.30;99.90;;;;;;4919421;29;20040;-71
2023/01/28 03:02:36;;;;;;;11.95;7.00;;;;;;;;;;4911652;29;20390;-76
2023/01/28 03:05:30;;;;;;;13.10;7.03;;;3.30;99.90;;;;;;4902527;29;20135;-76
2023/01/28 03:07:57;;;;;;;9.13;6.93;;;;;;;;;;4905144;29;20064;-76
2023/01/28 03:10:25;;;;;;;9.05;6.38;;;;;;;;;;4901569;29;20039;-76
2023/01/28 03:38:41;;;;;;;10.35;6.32;;;;;;;;;;4918716;29;20046;-76
2023/01/28 03:41:08;;;;;;;9.60;6.57;;;;;;;;;;4909618;29;20050;-76
2023/01/28 03:43:34;;;;;;;9.65;6.85;;;;;;;;;;4901398;29;20096;-76
2023/01/28 03:46:01;;;;;;;13.13;6.85;;;;;;;;;;4901540;29;20092;-76
2023/01/28 03:48:27;;;;;;;10.43;7.25;;;3.00;99.90;;;;;;4894520;29;20074;-76
2023/01/28 03:50:59;;;;;;;11.52;7.15;;;;;;;;;;4901133;29;20519;-76
2023/01/28 03:53:25;;;;;;;12.07;7.18;;;;;;;;;;4918409;29;20055;-76
2023/01/28 03:55:52;;;;;;;10.10;6.80;;;3.10;99.90;;;;;;4892692;29;20062;-70
2023/01/28 03:58:19;;;;;;;10.38;6.60;;;;;;;;;;4885834;29;20087;-71
2023/01/28 04:00:46;;;;;;;10.85;7.47;;;;;;;;;;4911527;29;20048;-71
2023/01/28 04:03:17;;;;;;;12.93;7.70;;;3.30;99.90;;;;;;4918393;29;20039;-71
2023/01/28 04:06:03;;;;;;;11.52;6.90;;;;;;;;;;4916817;29;20050;-71
2023/01/28 04:08:29;;;;;;;11.77;7.07;;;;;;;;;;4901951;29;20044;-71
2023/01/28 04:10:56;;;;;;;15.90;7.35;;;;;;;;;;4901067;29;20051;-71
2023/01/28 04:13:22;;;;;;;9.50;6.55;;;;;;;;;;4909031;29;20460;-71
2023/01/28 04:15:48;;;;;;;10.70;7.22;;;;;;;;;;4902209;29;20043;-71
2023/01/28 04:18:14;;;;;;;11.75;7.22;;;;;;;;;;4914167;29;20031;-72
2023/01/28 04:20:40;;;;;;;12.63;7.40;;;;;;;;;;4911065;29;20036;-71
2023/01/28 04:23:07;;;;;;;11.20;7.60;;;;;;;;;;4901015;29;20040;-72
2023/01/28 04:25:33;;;;;;;10.50;7.50;;;;;;;;;;4908975;29;20044;-71
2023/01/28 04:27:59;;;;;;;13.07;7.85;;;;;;;;;;4916792;29;20048;-71
2023/01/28 04:30:25;;;;;;;10.13;7.05;;;;;;;;;;4918114;29;20063;-71
2023/01/28 04:32:51;;;;;;;15.05;7.90;;;;;;;;;;4917621;29;20158;-72
2023/01/28 04:35:18;;;;;;;13.23;7.90;;;3.10;99.90;;;;;;4923136;29;20056;-71
2023/01/28 04:37:44;;;;;;;10.88;8.00;;;;;;;;;;4900649;29;20059;-72
2023/01/28 04:40:11;;;;;;;13.52;7.85;;;;;;;;;;4900832;29;20073;-71
2023/01/28 04:42:37;;;;;;;12.02;7.88;;;;;;;;;;4884948;29;20036;-71
2023/01/28 04:45:04;;;;;;;9.93;7.75;;;;;;;;;;4913189;29;20031;-71
2023/01/28 04:47:30;;;;;;;11.95;7.53;;;;;;;;;;4893644;29;20373;-72
2023/01/28 04:49:56;;;;;;;12.23;7.38;;;;;;;;;;4900327;29;20057;-71
2023/01/28 04:52:22;;;;;;;11.70;7.95;;;;;;;;;;4884886;29;21601;-71
2023/01/28 04:54:48;;;;;;;12.07;7.80;;;;;;;;;;4885941;29;20048;-72
2023/01/28 04:57:15;;;;;;;12.07;8.07;;;;;;;;;;4893811;29;20399;-72
2023/01/28 04:59:42;;;;;;;13.27;8.60;;;;;;;;;;4910059;29;20047;-72
2023/01/28 05:02:08;;;;;;;11.43;8.00;;;;;;;;;;4917000;29;20629;-71
2023/01/28 05:04:34;;;;;;;13.00;7.88;;;;;;;;;;4901908;29;20040;-71
2023/01/28 05:07:01;;;;;;;11.15;7.72;;;;;;;;;;4915719;29;20039;-71
2023/01/28 05:09:27;;;;;;;12.80;8.80;;;;;;;;;;4902789;29;20076;-71
2023/01/28 05:11:53;;;;;;;12.10;8.52;;;;;;;;;;4895253;29;20036;-71
2023/01/28 05:14:19;;;;;;;11.68;8.13;;;;;;;;;;4900209;29;20106;-71
2023/01/28 05:16:45;;;;;;;12.30;7.72;;;;;;;;;;4907299;29;20500;-71
2023/01/28 05:19:11;;;;;;;13.77;8.82;;;;;;;;;;4899967;29;20454;-72
2023/01/28 05:21:37;;;;;;;12.88;8.13;;;;;;;;;;4901128;29;20036;-72
2023/01/28 05:24:03;;;;;;;13.45;8.40;;;;;;;;;;4900152;29;20036;-72
2023/01/28 05:26:29;;;;;;;14.45;8.85;;;;;;;;;;4892697;29;20473;-71
2023/01/28 05:28:55;;;;;;;14.55;9.32;;;;;;;;;;4897792;29;20583;-71
2023/01/28 05:31:22;;;;;;;15.60;9.45;;;;;;;;;;4916172;29;20042;-71
2023/01/28 05:33:48;;;;;;;13.73;9.85;;;;;;;;;;4916985;29;20079;-71
2023/01/28 05:36:14;;;;;;;12.68;8.35;;;;;;;;;;4933496;29;20047;-71
2023/01/28 05:38:40;;;;;;;12.63;8.43;;;;;;;;;;4916749;29;20043;-71
2023/01/28 05:41:06;;;;;;;12.68;8.75;;;;;;;;;;4902285;29;20401;-71
2023/01/28 05:43:32;;;;;;;13.85;8.70;;;;;;;;;;4908456;29;20141;-72
2023/01/28 05:45:58;;;;;;;15.82;8.98;;;;;;;;;;4890424;29;20044;-71
2023/01/28 05:48:24;;;;;;;13.10;8.45;;;;;;;;;;4900595;29;20048;-71
2023/01/28 05:50:50;;;;;;;11.65;8.13;;;;;;;;;;4884365;29;20044;-71
2023/01/28 05:53:16;;;;;;;14.80;9.32;;;;;;;;;;4916425;29;20098;-71
2023/01/28 05:55:42;;;;;;;14.95;8.63;;;;;;;;;;4914044;29;20039;-71
2023/01/28 05:58:08;;;;;;;12.73;8.50;;;;;;;;;;4899808;29;20458;-71
2023/01/28 06:00:35;;;;;;;13.90;8.55;;;;;;;;;;4884112;29;20047;-71
2023/01/28 06:03:01;;;;;;;12.70;8.00;;;;;;;;;;4899412;29;20048;-71
2023/01/28 06:05:27;;;;;;;13.93;8.95;;;;;;;;;;4884213;29;20043;-71
2023/01/28 06:07:53;;;;;;;15.30;8.23;;;;;;;;;;4889680;29;20040;-71
2023/01/28 06:10:19;;;;;;;14.85;9.05;;;;;;;;;;4901737;29;20134;-71
2023/01/28 06:12:45;;;;;;;12.02;8.73;;;;;;;;;;4909400;29;20408;-71
2023/01/28 06:15:11;;;;;;;14.77;9.32;;;;;;;;;;4884051;29;20024;-71
2023/01/28 06:17:37;;;;;;;15.35;8.70;;;;;;;;;;4899237;29;20480;-71
2023/01/28 06:20:03;;;;;;;12.40;9.20;;;;;;;;;;4901227;29;20119;-71
2023/01/28 06:22:29;;;;;;;17.23;9.80;;;;;;;;;;4909500;29;20036;-71
2023/01/28 06:24:55;;;;;;;16.13;9.55;;;;;;;;;;4884059;29;20036;-71
2023/01/28 06:27:22;;;;;;;15.32;9.90;;;;;;;;;;4909856;29;20047;-71
2023/01/28 06:29:48;;;;;;;18.30;10.75;;;;;;;;;;4915025;29;20488;-71
2023/01/28 06:32:14;;;;;;;17.50;10.82;;;;;;;;;;4903591;29;20389;-71
2023/01/28 06:34:40;;;;;;;15.55;10.27;;;;;;;;;;4902672;29;20083;-71
2023/01/28 06:37:07;;;;;;;19.20;11.20;;;;;;;;;;4903877;29;20056;-71
2023/01/28 06:39:33;;;;;;;18.98;10.60;;;;;;;;;;4903706;29;20040;-71
2023/01/28 06:41:59;;;;;;;17.45;10.63;;;;;;;;;;4902653;29;20043;-71
2023/01/28 06:44:26;;;;;;;15.85;10.07;;;;;;;;;;4912652;29;20484;-71
2023/01/28 06:46:52;;;;;;;20.63;11.07;;;;;;;;;;4907084;29;20552;-71
2023/01/28 06:49:19;;;;;;;19.88;10.70;;;;;;;;;;4887343;29;20079;-71
2023/01/28 06:51:45;;;;;;;14.05;10.27;;;;;;;;;;4904153;29;20044;-71
2023/01/28 06:54:11;;;;;;;18.38;11.23;;;;;;;;;;4908037;29;20072;-72
2023/01/28 06:56:37;;;;;;;17.77;10.68;;;;;;;;;;4918339;29;20043;-71
2023/01/28 06:59:03;;;;;;;19.15;11.13;;;;;;;;;;4919236;29;20126;-71
2023/01/28 07:01:29;;;;;;;16.20;11.27;;;;;;;;;;4899988;29;20190;-71
2023/01/28 07:03:56;;;;;;;15.88;10.90;;;;;;;;;;4895793;29;20035;-76
2023/01/28 07:06:22;;;;;;;18.45;12.07;;;;;;;;;;4903712;29;20035;-76
2023/01/28 07:08:48;;;;;;;16.95;11.15;;;;;;;;;;4903585;29;20179;-76
2023/01/28 07:11:14;;;;;;;18.45;11.85;;;;;;;;;;4916077;29;20044;-76
2023/01/28 07:13:40;;;;;;;18.75;11.07;;;;;;;;;;4890844;29;20040;-76
2023/01/28 07:16:06;;;;;;;22.10;11.93;;;;;;;;;;4919258;29;20138;-76
2023/01/28 07:18:33;;;;;;;18.15;10.68;;;;;;;;;;4933055;29;20130;-75
2023/01/28 07:20:59;;;;;;;20.48;11.05;;;;;;;;;;4902444;29;20167;-76
2023/01/28 07:23:25;;;;;;;17.70;11.15;;;;;;;;;;4919208;29;20036;-76
2023/01/28 07:25:51;;;;;;;18.92;11.80;;;;;;;;;;4919002;29;20036;-76
2023/01/28 07:28:20;;;;;;;17.02;11.32;;;;;;;;;;4918931;29;20412;-77
2023/01/28 07:30:48;;;;;;;19.83;11.88;;;2.50;99.90;;;;;;4906093;29;20075;-76
2023/01/28 07:33:14;;;;;;;18.77;11.82;;;;;;;;;;4901782;29;20040;-77
2023/01/28 07:35:40;;;;;;;18.55;11.45;;;;;;;;;;4906036;29;20052;-76
2023/01/28 07:38:06;;;;;;;17.52;11.70;;;;;;;;;;4901653;29;20540;-76
2023/01/28 07:40:32;;;;;;;16.42;10.90;;;;;;;;;;4908167;29;20032;-77
2023/01/28 07:42:59;;;;;;;18.58;12.27;;;;;;;;;;4901337;29;20075;-77
2023/01/28 07:45:27;;;;;;;18.15;11.50;;;;;;;;;;4900867;29;20039;-77
2023/01/28 07:48:02;;;;;;;18.98;11.93;;;1.90;99.90;;;;;;4904650;29;20036;-77
2023/01/28 07:50:30;;;;;;;19.27;11.77;;;2.00;99.90;;;;;;4932565;29;20118;-76
2023/01/28 07:52:59;;;;;;;18.40;11.48;;;;;;;;;;4902135;29;20119;-76
2023/01/28 07:55:25;;;;;;;21.48;12.02;;;;;;;;;;4916283;29;20384;-75
2023/01/28 07:57:52;;;;;;;21.60;12.20;;;;;;;;;;4910841;29;20485;-76
2023/01/28 08:00:19;;;;;;;20.58;11.88;;;;;;;;;;4902741;29;20044;-75
2023/01/28 08:02:46;;;;;;;17.20;11.60;;;;;;;;;;4903925;29;20036;-75
2023/01/28 08:05:20;;;;;;;21.00;12.65;;;2.00;99.90;;;;;;4899927;29;20042;-75
2023/01/28 08:07:47;;;;;;;23.15;13.23;;;;;;;;;;4904161;29;20039;-75
2023/01/28 08:10:13;;;;;;;22.17;13.07;;;;;;;;;;4917352;29;20385;-75
2023/01/28 08:12:40;;;;;;;21.17;12.80;;;;;;;;;;4896124;29;20047;-75
2023/01/28 08:15:06;;;;;;;22.60;13.27;;;;;;;;;;4924738;29;20054;-75
2023/01/28 08:17:33;;;;;;;21.25;13.25;;;;;;;;;;4895173;29;20040;-75
2023/01/28 08:19:59;;;;;;;22.00;13.75;;;;;;;;;;4910271;29;20040;-75
2023/01/28 08:22:25;;;;;;;21.05;13.40;;;;;;;;;;4892756;29;20035;-75
2023/01/28 08:24:51;;;;;;;24.20;13.13;;;;;;;;;;4885277;29;20457;-75
2023/01/28 08:27:17;;;;;;;22.00;13.23;;;;;;;;;;4900925;29;20111;-75
2023/01/28 08:29:43;;;;;;;23.70;14.25;;;;;;;;;;4885213;29;20962;-75
2023/01/28 08:32:10;;;;;;;24.25;13.27;;;;;;;;;;4885227;29;20051;-75
2023/01/28 08:34:36;;;;;;;21.80;13.00;;;;;;;;;;4909677;29;20098;-75
2023/01/28 08:37:04;;;;;;;23.95;13.18;;;;;;;;;;4907374;29;20058;-77
2023/01/28 08:39:30;;;;;;;24.77;14.15;;;;;;;;;;4905628;29;20047;-77
2023/01/28 08:41:56;;;;;;;24.48;13.35;;;;;;;;;;4915117;29;20040;-75
2023/01/28 08:44:22;;;;;;;22.63;12.55;;;;;;;;;;4911101;29;20035;-75
2023/01/28 08:46:48;;;;;;;20.52;12.65;;;;;;;;;;4913138;29;20071;-76
2023/01/28 08:49:14;;;;;;;22.25;13.48;;;;;;;;;;4912511;29;20081;-75
2023/01/28 08:51:40;;;;;;;29.60;14.57;;;;;;;;;;4908126;29;20042;-76
2023/01/28 08:54:06;;;;;;;23.00;12.55;;;;;;;;;;4884056;29;20075;-76
2023/01/28 08:56:32;;;;;;;23.55;13.15;;;;;;;;;;4903733;29;20393;-76
2023/01/28 08:58:59;;;;;;;23.17;13.15;;;;;;;;;;4899956;29;20070;-76
2023/01/28 09:01:28;;;;;;;25.80;12.25;;;;;;;;;;4900108;29;20048;-76
2023/01/28 09:03:54;;;;;;;22.98;13.55;;;;;;;;;;4909191;29;20122;-75
2023/01/28 09:06:20;;;;;;;20.88;12.73;;;;;;;;;;4909723;29;20095;-75
2023/01/28 09:08:46;;;;;;;21.13;12.55;;;;;;;;;;4899973;29;20082;-75
2023/01/28 09:11:12;;;;;;;23.42;13.90;;;;;;;;;;4907957;29;20448;-75
2023/01/28 09:13:38;;;;;;;23.42;13.48;;;;;;;;;;4909231;29;20052;-75
2023/01/28 09:16:05;;;;;;;22.55;12.80;;;;;;;;;;4910593;29;20043;-75
2023/01/28 09:18:31;;;;;;;23.88;12.73;;;;;;;;;;4906483;29;20040;-75
2023/01/28 09:20:57;;;;;;;20.63;12.75;;;;;;;;;;4909320;29;20047;-76
2023/01/28 09:23:23;;;;;;;20.88;12.80;;;;;;;;;;4907643;29;20040;-76
2023/01/28 09:25:49;;;;;;;21.05;11.98;;;;;;;;;;4907044;29;20075;-76
2023/01/28 09:28:15;;;;;;;23.25;12.55;;;;;;;;;;4911119;29;20476;-76
2023/01/28 09:30:41;;;;;;;23.67;11.70;;;;;;;;;;4917121;29;20429;-76
2023/01/28 09:33:07;;;;;;;22.33;12.00;;;;;;;;;;4916713;29;20046;-76
2023/01/28 09:35:34;;;;;;;20.55;11.77;;;;;;;;;;4899721;29;20427;-75
2023/01/28 09:38:00;;;;;;;21.02;11.90;;;;;;;;;;4900691;29;20050;-75
2023/01/28 09:40:41;;;;;;;19.83;12.75;;;2.80;99.90;;;;;;4901791;29;20108;-76
2023/01/28 09:43:32;;;;;;;23.38;12.75;;;2.90;99.90;;;;;;4906139;29;20071;-76
2023/01/28 09:45:59;;;;;;;25.40;11.77;;;;;;;;;;4919111;29;20039;-76
2023/01/28 09:48:31;;;;;;;22.30;13.02;;;;;;;;;;4918874;29;20098;-75
2023/01/28 09:50:58;;;;;;;21.50;12.77;;;;;;;;;;4911371;29;20079;-76
2023/01/28 09:53:28;;;;;;;20.50;11.95;;;;;;;;;;4900192;29;20044;-72
2023/01/28 09:56:01;;;;;;;21.38;11.45;;;;;;;;;;4908307;29;20051;-72
2023/01/28 09:58:27;;;;;;;23.30;11.63;;;;;;;;;;4884197;29;20055;-72
2023/01/28 10:00:53;;;;;;;21.25;11.25;;;;;;;;;;4892223;29;20141;-72
2023/01/28 10:03:50;;;;;;;22.65;11.75;;;3.10;99.90;;;;;;4902930;29;20043;-72
2023/01/28 10:06:52;;;;;;;20.85;10.93;;;3.30;99.90;;;;;;4914909;29;20075;-72
2023/01/28 10:09:24;;;;;;;19.83;11.00;;;;;;;;;;4918283;29;20044;-72
2023/01/28 10:12:08;;;;;;;21.43;12.57;;;;;;;;;;4904623;29;20099;-71
2023/01/28 10:14:53;;;;;;;23.27;10.70;;;;;;;;;;4922582;29;20062;-72
2023/01/28 10:17:26;;;;;;;25.73;11.68;;;;;;;;;;4904268;29;20048;-72
2023/01/28 10:19:56;;;;;;;21.95;11.52;;;;;;;;;;4902589;29;20409;-72
2023/01/28 10:22:25;;;;;;;18.20;10.68;;;;;;;;;;4919340;29;20083;-72
2023/01/28 10:25:00;;;;;;;20.95;10.90;;;3.80;99.90;;;;;;4922884;29;20106;-72
2023/01/28 10:27:28;;;;;;;22.42;10.35;;;;;;;;;;4905447;29;20043;-71
2023/01/28 10:29:54;;;;;;;18.27;10.52;;;;;;;;;;4907396;29;20091;-72
2023/01/28 10:32:29;;;;;;;22.92;10.85;;;;;;;;;;4919005;29;20396;-72
2023/01/28 10:34:58;;;;;;;19.40;10.20;;;;;;;;;;4921944;29;20051;-72
2023/01/28 10:37:25;;;;;;;21.48;10.07;;;4.20;99.90;;;;;;4921262;29;20047;-72
2023/01/28 10:39:55;;;;;;;21.23;10.68;;;4.00;99.90;;;;;;4921415;29;20048;-72
2023/01/28 10:42:35;;;;;;;21.27;10.85;;;4.00;99.90;;;;;;4908632;29;20544;-72
2023/01/28 10:45:27;;;;;;;18.83;10.48;;;3.90;99.90;;;;;;4921632;29;20178;-72
2023/01/28 10:47:53;;;;;;;19.20;10.63;;;;;;;;;;4902603;29;20045;-71
2023/01/28 10:50:23;;;;;;;22.17;9.95;;;4.10;99.90;;;;;;4935719;29;20044;-71
2023/01/28 10:53:00;;;;;;;18.83;9.77;;;;;;;;;;4896126;29;20040;-71
2023/01/28 10:55:30;;;;;;;19.70;10.05;;;4.10;99.90;;;;;;4910495;29;20039;-71
2023/01/28 10:57:56;;;;;;;19.63;10.98;;;;;;;;;;4887683;29;20051;-71
2023/01/28 11:00:29;;;;;;;28.08;10.50;;;4.00;99.90;;;;;;4904710;29;20095;-72
2023/01/28 11:02:56;;;;;;;21.48;10.30;;;4.10;99.90;;;;;;4920993;29;20039;-72
2023/01/28 11:05:26;;;;;;;18.35;9.32;;;;;;;;;;4919967;29;20055;-71
2023/01/28 11:08:11;;;;;;;17.45;9.05;;;;;;;;;;4914035;29;20043;-72
2023/01/28 11:10:39;;;;;;;21.90;9.23;;;;;;;;;;4907148;29;20032;-72
2023/01/28 11:13:13;;;;;;;19.80;9.60;;;4.10;99.90;;;;;;4904189;29;20048;-72
2023/01/28 11:15:45;;;;;;;20.90;10.00;;;;;;;;;;4906681;29;20035;-71
2023/01/28 11:18:16;;;;;;;21.85;10.93;;;;;;;;;;4888348;29;20048;-72
2023/01/28 11:20:48;;;;;;;20.20;9.57;;;;;;;;;;4906941;29;20416;-71
2023/01/28 11:23:19;;;;;;;24.20;9.90;;;;;;;;;;4910988;29;20071;-71
2023/01/28 11:25:45;;;;;;;21.70;9.25;;;;;;;;;;4920491;29;20061;-71
2023/01/28 11:28:19;;;;;;;19.95;9.27;;;;;;;;;;4932034;29;20043;-71
2023/01/28 11:30:52;;;;;;;19.13;9.68;;;4.50;99.90;;;;;;4920022;29;20087;-71
2023/01/28 11:33:18;;;;;;;;;;;;;;;;;;4937012;29;20392;-71
2023/01/28 11:35:52;;;;;;;27.70;9.82;;;;;;;;;;4916099;29;20113;-72
2023/01/28 11:38:20;;;;;;;21.05;9.45;;;;;;;;;;4917912;29;20469;-71
2023/01/28 11:40:53;;;;;;;26.10;9.98;;;4.60;99.90;;;;;;4912595;29;20051;-72
2023/01/28 11:43:24;;;;;;;23.10;9.63;;;;;;;;;;4901592;29;20107;-71
2023/01/28 11:46:11;;;;;;;18.08;8.73;;;4.90;99.90;;;;;;4921675;29;20036;-71
2023/01/28 11:48:43;;;;;;;19.60;9.27;;;;;;;;;;4933046;29;20051;-71
2023/01/28 11:51:22;;;;;;;18.13;8.75;;;;;;;;;;4904681;29;20095;-71
2023/01/28 11:53:48;;;;;;;19.13;10.20;;;;;;;;;;4903991;29;20063;-71
2023/01/28 11:56:38;;;;;;;23.27;9.50;;;5.30;99.90;;;;;;4910251;29;20126;-71
2023/01/28 11:59:17;;;;;;;23.98;10.48;;;;;;;;;;4930842;29;20040;-72
2023/01/28 12:02:02;;;;;;;20.65;8.63;;;;;;;;;;4917483;29;20040;-71
2023/01/28 12:04:44;;;;;;;18.38;9.48;;;;;;;;;;4901489;29;20593;-71
2023/01/28 12:07:10;;;;;;;17.38;8.82;;;;;;;;;;4917857;29;20095;-71
2023/01/28 12:09:42;;;;;;;21.35;7.85;;;;;;;;;;4901116;29;20059;-72
2023/01/28 12:12:27;;;;;;;16.38;6.88;;;;;;;;;;4917937;29;20046;-71
2023/01/28 12:15:16;;;;;;;17.75;8.07;;;4.90;99.90;;;;;;4902338;29;20058;-71
2023/01/28 12:18:13;;;;;;;15.30;6.95;;;5.00;99.90;;;;;;4918032;29;20125;-73
2023/01/28 12:21:20;;;;;;;15.35;7.72;;;5.10;99.90;;;;;;4915854;29;20043;-72
2023/01/28 12:23:50;;;;;;;26.83;8.98;;;;;;;;;;4900412;29;20063;-72
2023/01/28 12:26:20;;;;;;;21.48;8.90;;;;;;;;;;4916603;29;20380;-71
2023/01/28 12:28:56;;;;;;;19.10;7.78;;;;;;;;;;4884182;29;20044;-71
2023/01/28 12:31:33;;;;;;;19.40;7.82;;;;;;;;;;4885856;29;20115;-71
2023/01/28 12:34:17;;;;;;;16.40;7.57;;;;;;;;;;4907988;29;20040;-71
2023/01/28 12:36:55;;;;;;;14.25;7.25;;;;;;;;;;4915228;29;20047;-71
2023/01/28 12:39:24;;;;;;;16.40;8.02;;;;;;;;;;4902677;29;20076;-71
2023/01/28 12:41:53;;;;;;;14.85;7.22;;;;;;;;;;4907787;29;20083;-71
2023/01/28 12:44:25;;;;;;;16.23;8.35;;;;;;;;;;4917697;29;20047;-69
2023/01/28 12:46:58;;;;;;;14.73;7.45;;;;;;;;;;4891660;29;20433;-70
2023/01/28 12:49:36;;;;;;;17.27;8.25;;;;;;;;;;4902924;29;20046;-70
2023/01/28 12:52:02;;;;;;;16.88;7.78;;;;;;;;;;4908717;29;20547;-73
2023/01/28 12:54:35;;;;;;;16.23;7.65;;;;;;;;;;4917737;29;20064;-70
2023/01/28 12:57:01;;;;;;;23.42;7.85;;;;;;;;;;4928333;29;20055;-78
2023/01/28 12:59:30;;;;;;;20.98;7.50;;;;;;;;;;4893342;29;20047;-78
2023/01/28 13:02:04;;;;;;;19.52;7.28;;;;;;;;;;4906355;29;20044;-78
2023/01/28 13:04:36;;;;;;;13.95;7.38;;;;;;;;;;4902256;29;20544;-71
2023/01/28 13:07:23;;;;;;;12.60;6.30;;;5.50;99.90;;;;;;4899602;29;20079;-71
2023/01/28 13:09:55;;;;;;;19.02;6.47;;;5.70;99.90;;;;;;4907585;29;20199;-71
2023/01/28 13:12:22;;;;;;;17.10;6.80;;;;;;;;;;4902796;29;20401;-71
2023/01/28 13:14:49;;;;;;;15.35;6.55;;;;;;;;;;4900974;29;20051;-71
2023/01/28 13:17:29;;;;;;;14.73;6.50;;;;;;;;;;4883111;29;20382;-71
2023/01/28 13:19:55;;;;;;;20.00;7.00;;;;;;;;;;4899412;29;20048;-71
2023/01/28 13:22:33;;;;;;;15.07;7.15;;;;;;;;;;4884264;29;20493;-71
2023/01/28 13:25:23;;;;;;;11.27;6.55;;;;;;;;;;4900119;29;20059;-71
2023/01/28 13:27:55;;;;;;;17.15;5.43;;;;;;;;;;4900000;29;20040;-71
2023/01/28 13:30:24;;;;;;;;;;;5.50;99.90;;;;;;4900886;29;20084;-71
2023/01/28 13:33:13;;;;;;;9.05;4.43;;;;;;;;;;4900154;29;19946;-71
2023/01/28 13:35:40;;;;;;;13.40;5.43;;;;;;;;;;4898137;29;20052;-71
2023/01/28 13:38:13;;;;;;;13.38;4.68;;;;;;;;;;4900034;29;20501;-71
2023/01/28 13:40:40;;;;;;;14.98;5.07;;;;;;;;;;4884488;29;20075;-71
2023/01/28 13:43:25;;;;;;;11.95;5.05;;;;;;;;;;4902615;29;20093;-71
2023/01/28 13:45:56;;;;;;;11.98;5.13;;;;;;;;;;4888517;29;20048;-71
2023/01/28 13:48:53;;;;;;;14.40;4.20;;;5.50;99.90;;;;;;4903823;29;20059;-71
2023/01/28 13:51:23;;;;;;;15.27;4.65;;;5.60;99.90;;;;;;4903440;29;20048;-71
2023/01/28 13:53:57;;;;;;;15.20;6.47;;;;;;;;;;4903697;29;20040;-71
2023/01/28 13:56:54;;;;;;;10.57;3.97;;;5.50;99.90;;;;;;4903378;29;20056;-71
2023/01/28 13:59:53;;;;;;;11.57;4.38;;;5.60;99.90;;;;;;4888004;29;20048;-71
2023/01/28 14:02:47;;;;;;;15.88;5.18;;;5.60;99.90;;;;;;4903464;29;20568;-71
2023/01/28 14:05:19;;;;;;;10.00;4.75;;;;;;;;;;4903468;29;20055;-71
2023/01/28 14:08:04;;;;;;;11.95;4.68;;;;;;;;;;4903445;29;20086;-72
2023/01/28 14:10:57;;;;;;;12.75;5.10;;;5.40;99.90;;;;;;4903412;29;20048;-71
2023/01/28 14:13:36;;;;;;;12.07;4.85;;;;;;;;;;4903391;29;20051;-71
2023/01/28 14:16:08;;;;;;;8.98;3.72;;;;;;;;;;4887814;29;20048;-71
2023/01/28 14:18:41;;;;;;;10.32;3.47;;;5.70;99.90;;;;;;4903430;29;20048;-71
2023/01/28 14:21:14;;;;;;;10.50;4.35;;;5.40;99.90;;;;;;4887562;29;20124;-72
2023/01/28 14:23:44;;;;;;;;;;;5.60;99.90;;;;;;4903625;29;20400;-71
2023/01/28 14:26:31;;;;;;;12.48;4.32;;;5.40;99.90;;;;;;4903225;29;19967;-71
2023/01/28 14:29:17;;;;;;;17.77;4.38;;;;;;;;;;4903349;29;20123;-71
2023/01/28 14:31:43;;;;;;;9.23;3.65;;;;;;;;;;4887410;29;20126;-71
2023/01/28 14:34:09;;;;;;;9.60;3.70;;;;;;;;;;4903161;29;20044;-71
2023/01/28 14:36:36;;;;;;;10.68;3.45;;;;;;;;;;4887474;29;20059;-71
2023/01/28 14:39:03;;;;;;;7.45;3.60;;;;;;;;;;4902676;29;20449;-71
2023/01/28 14:41:29;;;;;;;10.90;3.53;;;;;;;;;;4903125;29;20052;-71
2023/01/28 14:43:56;;;;;;;6.13;3.13;;;5.50;99.90;;;;;;4887156;29;20503;-71
2023/01/28 14:46:29;;;;;;;9.93;4.20;;;;;;;;;;4887594;29;20097;-71
2023/01/28 14:49:12;;;;;;;11.70;4.43;;;5.50;99.90;;;;;;4887414;29;20048;-71
2023/01/28 14:51:57;;;;;;;7.65;4.20;;;;;;;;;;4902946;29;20044;-73
2023/01/28 14:54:26;;;;;;;10.30;3.92;;;;;;;;;;4886749;29;20130;-74